sensor_id;sensor_type;location;lat;lon;timestamp;P1;durP1;ratioP1;P2;durP2;ratioP2
78732;SDS011;68056;52.530;5.454;2023-04-03T00:01:16;1.02;;;0.70;;
78732;SDS011;68056;52.530;5.454;2023-04-03T00:03:43;2.10;;;0.55;;
78732;SDS011;68056;52.530;5.454;2023-04-03T00:06:09;1.17;;;0.68;;
78732;SDS011;68056;52.530;5.454;2023-04-03T00:08:37;1.58;;;0.60;;
78732;SDS011;68056;52.530;5.454;2023-04-03T00:11:04;1.58;;;0.57;;
78732;SDS011;68056;52.530;5.454;2023-04-03T00:13:30;3.17;;;1.10;;
78732;SDS011;68056;52.530;5.454;2023-04-03T00:15:57;1.27;;;0.60;;
78732;SDS011;68056;52.530;5.454;2023-04-03T00:18:23;1.45;;;0.50;;
78732;SDS011;68056;52.530;5.454;2023-04-03T00:20:48;2.30;;;0.75;;
78732;SDS011;68056;52.530;5.454;2023-04-03T00:23:17;2.97;;;0.68;;
78732;SDS011;68056;52.530;5.454;2023-04-03T00:25:42;0.80;;;0.70;;
78732;SDS011;68056;52.530;5.454;2023-04-03T00:28:08;1.35;;;0.63;;
78732;SDS011;68056;52.530;5.454;2023-04-03T00:30:37;1.45;;;0.63;;
78732;SDS011;68056;52.530;5.454;2023-04-03T00:33:04;1.85;;;0.70;;
78732;SDS011;68056;52.530;5.454;2023-04-03T00:35:30;0.82;;;0.60;;
78732;SDS011;68056;52.530;5.454;2023-04-03T00:37:55;2.42;;;0.50;;
78732;SDS011;68056;52.530;5.454;2023-04-03T00:40:25;1.35;;;0.77;;
78732;SDS011;68056;52.530;5.454;2023-04-03T00:42:54;2.28;;;0.70;;
78732;SDS011;68056;52.530;5.454;2023-04-03T00:45:32;1.17;;;0.40;;
78732;SDS011;68056;52.530;5.454;2023-04-03T00:48:00;1.60;;;0.65;;
78732;SDS011;68056;52.530;5.454;2023-04-03T00:50:30;2.33;;;0.63;;
78732;SDS011;68056;52.530;5.454;2023-04-03T00:52:59;1.48;;;0.60;;
78732;SDS011;68056;52.530;5.454;2023-04-03T00:55:26;1.20;;;0.80;;
78732;SDS011;68056;52.530;5.454;2023-04-03T00:57:52;3.17;;;0.65;;
78732;SDS011;68056;52.530;5.454;2023-04-03T01:02:47;1.10;;;0.60;;
78732;SDS011;68056;52.530;5.454;2023-04-03T01:05:16;1.00;;;0.60;;
78732;SDS011;68056;52.530;5.454;2023-04-03T01:07:43;2.17;;;0.70;;
78732;SDS011;68056;52.530;5.454;2023-04-03T01:10:11;2.70;;;0.70;;
78732;SDS011;68056;52.530;5.454;2023-04-03T01:12:40;0.63;;;0.47;;
78732;SDS011;68056;52.530;5.454;2023-04-03T01:17:40;2.20;;;1.10;;
78732;SDS011;68056;52.530;5.454;2023-04-03T01:25:30;0.73;;;0.55;;
78732;SDS011;68056;52.530;5.454;2023-04-03T01:27:57;2.88;;;0.60;;
78732;SDS011;68056;52.530;5.454;2023-04-03T01:30:24;2.58;;;0.82;;
78732;SDS011;68056;52.530;5.454;2023-04-03T01:32:55;3.53;;;0.95;;
78732;SDS011;68056;52.530;5.454;2023-04-03T01:35:20;0.80;;;0.73;;
78732;SDS011;68056;52.530;5.454;2023-04-03T01:37:46;4.20;;;0.80;;
78732;SDS011;68056;52.530;5.454;2023-04-03T01:40:12;3.35;;;0.80;;
78732;SDS011;68056;52.530;5.454;2023-04-03T01:42:37;2.67;;;0.82;;
78732;SDS011;68056;52.530;5.454;2023-04-03T01:45:03;2.05;;;0.88;;
78732;SDS011;68056;52.530;5.454;2023-04-03T01:47:32;5.68;;;1.30;;
78732;SDS011;68056;52.530;5.454;2023-04-03T01:49:58;2.55;;;1.40;;
78732;SDS011;68056;52.530;5.454;2023-04-03T01:52:23;2.75;;;1.33;;
78732;SDS011;68056;52.530;5.454;2023-04-03T01:54:49;4.35;;;1.73;;
78732;SDS011;68056;52.530;5.454;2023-04-03T01:57:15;6.70;;;2.75;;
78732;SDS011;68056;52.530;5.454;2023-04-03T01:59:41;5.22;;;2.28;;
78732;SDS011;68056;52.530;5.454;2023-04-03T02:02:07;4.55;;;2.00;;
78732;SDS011;68056;52.530;5.454;2023-04-03T02:04:32;6.10;;;2.45;;
78732;SDS011;68056;52.530;5.454;2023-04-03T02:06:58;8.73;;;2.78;;
78732;SDS011;68056;52.530;5.454;2023-04-03T02:09:23;8.07;;;2.47;;
78732;SDS011;68056;52.530;5.454;2023-04-03T02:11:49;7.20;;;2.42;;
78732;SDS011;68056;52.530;5.454;2023-04-03T02:14:15;6.05;;;2.72;;
78732;SDS011;68056;52.530;5.454;2023-04-03T02:16:40;9.68;;;2.80;;
78732;SDS011;68056;52.530;5.454;2023-04-03T02:19:06;8.43;;;3.67;;
78732;SDS011;68056;52.530;5.454;2023-04-03T02:21:31;9.45;;;3.83;;
78732;SDS011;68056;52.530;5.454;2023-04-03T02:23:57;8.63;;;3.08;;
78732;SDS011;68056;52.530;5.454;2023-04-03T02:26:23;9.63;;;3.40;;
78732;SDS011;68056;52.530;5.454;2023-04-03T02:28:48;7.28;;;3.90;;
78732;SDS011;68056;52.530;5.454;2023-04-03T02:31:14;11.70;;;3.97;;
78732;SDS011;68056;52.530;5.454;2023-04-03T02:33:40;8.98;;;3.33;;
78732;SDS011;68056;52.530;5.454;2023-04-03T02:36:06;8.18;;;3.03;;
78732;SDS011;68056;52.530;5.454;2023-04-03T02:38:36;10.40;;;3.63;;
78732;SDS011;68056;52.530;5.454;2023-04-03T02:41:08;10.40;;;3.83;;
78732;SDS011;68056;52.530;5.454;2023-04-03T02:43:35;8.25;;;4.47;;
78732;SDS011;68056;52.530;5.454;2023-04-03T02:46:01;10.43;;;3.65;;
78732;SDS011;68056;52.530;5.454;2023-04-03T02:48:27;10.52;;;4.90;;
78732;SDS011;68056;52.530;5.454;2023-04-03T02:50:52;15.82;;;6.03;;
78732;SDS011;68056;52.530;5.454;2023-04-03T02:53:19;9.23;;;4.03;;
78732;SDS011;68056;52.530;5.454;2023-04-03T02:55:45;14.80;;;4.93;;
78732;SDS011;68056;52.530;5.454;2023-04-03T02:58:12;12.55;;;4.70;;
78732;SDS011;68056;52.530;5.454;2023-04-03T03:00:37;13.45;;;4.90;;
78732;SDS011;68056;52.530;5.454;2023-04-03T03:03:03;7.43;;;4.00;;
78732;SDS011;68056;52.530;5.454;2023-04-03T03:05:29;9.35;;;4.65;;
78732;SDS011;68056;52.530;5.454;2023-04-03T03:07:55;10.20;;;3.97;;
78732;SDS011;68056;52.530;5.454;2023-04-03T03:10:21;10.05;;;4.65;;
78732;SDS011;68056;52.530;5.454;2023-04-03T03:12:52;11.48;;;4.85;;
78732;SDS011;68056;52.530;5.454;2023-04-03T03:15:18;13.30;;;5.32;;
78732;SDS011;68056;52.530;5.454;2023-04-03T03:17:44;9.52;;;4.05;;
78732;SDS011;68056;52.530;5.454;2023-04-03T03:20:10;10.27;;;4.68;;
78732;SDS011;68056;52.530;5.454;2023-04-03T03:22:40;12.55;;;5.13;;
78732;SDS011;68056;52.530;5.454;2023-04-03T03:25:15;14.00;;;4.72;;
78732;SDS011;68056;52.530;5.454;2023-04-03T03:27:40;15.27;;;6.13;;
78732;SDS011;68056;52.530;5.454;2023-04-03T03:30:06;10.40;;;4.72;;
78732;SDS011;68056;52.530;5.454;2023-04-03T03:32:32;11.23;;;4.10;;
78732;SDS011;68056;52.530;5.454;2023-04-03T03:34:58;12.45;;;5.25;;
78732;SDS011;68056;52.530;5.454;2023-04-03T03:37:23;10.57;;;4.18;;
78732;SDS011;68056;52.530;5.454;2023-04-03T03:39:49;12.43;;;4.85;;
78732;SDS011;68056;52.530;5.454;2023-04-03T03:42:14;12.32;;;4.97;;
78732;SDS011;68056;52.530;5.454;2023-04-03T03:44:40;12.05;;;5.47;;
78732;SDS011;68056;52.530;5.454;2023-04-03T03:47:12;13.90;;;6.03;;
78732;SDS011;68056;52.530;5.454;2023-04-03T03:49:37;11.15;;;5.03;;
78732;SDS011;68056;52.530;5.454;2023-04-03T03:52:03;11.68;;;4.50;;
78732;SDS011;68056;52.530;5.454;2023-04-03T03:54:29;9.23;;;3.75;;
78732;SDS011;68056;52.530;5.454;2023-04-03T03:56:54;8.77;;;3.83;;
78732;SDS011;68056;52.530;5.454;2023-04-03T03:59:20;8.15;;;2.90;;
78732;SDS011;68056;52.530;5.454;2023-04-03T04:01:46;5.80;;;2.70;;
78732;SDS011;68056;52.530;5.454;2023-04-03T04:04:11;4.15;;;1.95;;
78732;SDS011;68056;52.530;5.454;2023-04-03T04:06:37;3.25;;;2.22;;
78732;SDS011;68056;52.530;5.454;2023-04-03T04:09:03;3.58;;;1.90;;
78732;SDS011;68056;52.530;5.454;2023-04-03T04:11:28;3.65;;;1.63;;
78732;SDS011;68056;52.530;5.454;2023-04-03T04:13:54;4.75;;;1.70;;
78732;SDS011;68056;52.530;5.454;2023-04-03T04:16:19;2.83;;;1.35;;
78732;SDS011;68056;52.530;5.454;2023-04-03T04:18:45;5.38;;;1.63;;
78732;SDS011;68056;52.530;5.454;2023-04-03T04:21:10;4.90;;;1.60;;
78732;SDS011;68056;52.530;5.454;2023-04-03T04:23:36;4.15;;;1.40;;
78732;SDS011;68056;52.530;5.454;2023-04-03T04:26:02;5.80;;;2.30;;
78732;SDS011;68056;52.530;5.454;2023-04-03T04:28:27;5.13;;;1.77;;
78732;SDS011;68056;52.530;5.454;2023-04-03T04:30:53;3.53;;;1.55;;
78732;SDS011;68056;52.530;5.454;2023-04-03T04:33:18;6.78;;;2.15;;
78732;SDS011;68056;52.530;5.454;2023-04-03T04:35:46;3.10;;;1.58;;
78732;SDS011;68056;52.530;5.454;2023-04-03T04:38:13;7.03;;;2.30;;
78732;SDS011;68056;52.530;5.454;2023-04-03T04:40:38;5.40;;;1.65;;
78732;SDS011;68056;52.530;5.454;2023-04-03T04:43:05;8.95;;;1.80;;
78732;SDS011;68056;52.530;5.454;2023-04-03T04:45:31;6.35;;;1.92;;
78732;SDS011;68056;52.530;5.454;2023-04-03T04:47:56;4.47;;;1.70;;
78732;SDS011;68056;52.530;5.454;2023-04-03T04:50:22;7.45;;;2.03;;
78732;SDS011;68056;52.530;5.454;2023-04-03T04:52:47;7.22;;;2.15;;
78732;SDS011;68056;52.530;5.454;2023-04-03T04:55:13;4.72;;;2.10;;
78732;SDS011;68056;52.530;5.454;2023-04-03T04:57:39;5.78;;;2.03;;
78732;SDS011;68056;52.530;5.454;2023-04-03T05:00:05;3.13;;;1.58;;
78732;SDS011;68056;52.530;5.454;2023-04-03T05:02:31;4.65;;;1.90;;
78732;SDS011;68056;52.530;5.454;2023-04-03T05:04:56;8.80;;;1.67;;
78732;SDS011;68056;52.530;5.454;2023-04-03T05:07:22;4.50;;;1.73;;
78732;SDS011;68056;52.530;5.454;2023-04-03T05:09:49;6.80;;;2.15;;
78732;SDS011;68056;52.530;5.454;2023-04-03T05:12:15;4.47;;;1.77;;
78732;SDS011;68056;52.530;5.454;2023-04-03T05:14:41;4.88;;;1.65;;
78732;SDS011;68056;52.530;5.454;2023-04-03T05:17:07;3.90;;;1.80;;
78732;SDS011;68056;52.530;5.454;2023-04-03T05:19:32;3.60;;;1.80;;
78732;SDS011;68056;52.530;5.454;2023-04-03T05:21:58;5.15;;;2.15;;
78732;SDS011;68056;52.530;5.454;2023-04-03T05:24:27;4.65;;;1.63;;
78732;SDS011;68056;52.530;5.454;2023-04-03T05:26:53;7.45;;;1.88;;
78732;SDS011;68056;52.530;5.454;2023-04-03T05:29:26;7.63;;;2.03;;
78732;SDS011;68056;52.530;5.454;2023-04-03T05:31:51;4.55;;;1.95;;
78732;SDS011;68056;52.530;5.454;2023-04-03T05:34:17;4.63;;;1.63;;
78732;SDS011;68056;52.530;5.454;2023-04-03T05:36:43;4.45;;;2.83;;
78732;SDS011;68056;52.530;5.454;2023-04-03T05:39:08;7.00;;;2.10;;
78732;SDS011;68056;52.530;5.454;2023-04-03T05:41:34;10.30;;;2.67;;
78732;SDS011;68056;52.530;5.454;2023-04-03T05:44:00;4.40;;;2.10;;
78732;SDS011;68056;52.530;5.454;2023-04-03T05:46:26;10.75;;;3.05;;
78732;SDS011;68056;52.530;5.454;2023-04-03T05:48:54;6.80;;;3.00;;
78732;SDS011;68056;52.530;5.454;2023-04-03T05:51:25;11.82;;;3.33;;
78732;SDS011;68056;52.530;5.454;2023-04-03T05:53:59;9.48;;;2.20;;
78732;SDS011;68056;52.530;5.454;2023-04-03T05:56:31;14.50;;;3.30;;
78732;SDS011;68056;52.530;5.454;2023-04-03T05:58:56;11.50;;;3.47;;
78732;SDS011;68056;52.530;5.454;2023-04-03T06:01:22;9.18;;;2.47;;
78732;SDS011;68056;52.530;5.454;2023-04-03T06:03:48;8.38;;;2.33;;
78732;SDS011;68056;52.530;5.454;2023-04-03T06:06:14;8.70;;;2.65;;
78732;SDS011;68056;52.530;5.454;2023-04-03T06:08:40;8.50;;;2.90;;
78732;SDS011;68056;52.530;5.454;2023-04-03T06:11:06;12.07;;;3.28;;
78732;SDS011;68056;52.530;5.454;2023-04-03T06:13:33;3.08;;;1.80;;
78732;SDS011;68056;52.530;5.454;2023-04-03T06:16:00;8.05;;;1.92;;
78732;SDS011;68056;52.530;5.454;2023-04-03T06:21:20;3.22;;;1.67;;
78732;SDS011;68056;52.530;5.454;2023-04-03T06:23:46;5.93;;;2.70;;
78732;SDS011;68056;52.530;5.454;2023-04-03T06:26:11;7.40;;;3.42;;
78732;SDS011;68056;52.530;5.454;2023-04-03T06:28:37;9.25;;;3.70;;
78732;SDS011;68056;52.530;5.454;2023-04-03T06:31:03;8.27;;;3.50;;
78732;SDS011;68056;52.530;5.454;2023-04-03T06:33:28;8.00;;;3.00;;
78732;SDS011;68056;52.530;5.454;2023-04-03T06:35:58;3.97;;;2.20;;
78732;SDS011;68056;52.530;5.454;2023-04-03T06:38:23;11.90;;;3.58;;
78732;SDS011;68056;52.530;5.454;2023-04-03T06:40:49;6.93;;;3.00;;
78732;SDS011;68056;52.530;5.454;2023-04-03T06:43:16;7.28;;;2.25;;
78732;SDS011;68056;52.530;5.454;2023-04-03T06:45:45;9.00;;;3.72;;
78732;SDS011;68056;52.530;5.454;2023-04-03T06:48:11;7.85;;;2.88;;
78732;SDS011;68056;52.530;5.454;2023-04-03T06:50:37;3.92;;;1.92;;
78732;SDS011;68056;52.530;5.454;2023-04-03T06:53:03;6.85;;;3.08;;
78732;SDS011;68056;52.530;5.454;2023-04-03T06:55:29;4.32;;;2.15;;
78732;SDS011;68056;52.530;5.454;2023-04-03T06:57:55;4.65;;;2.83;;
78732;SDS011;68056;52.530;5.454;2023-04-03T07:00:21;11.40;;;2.70;;
78732;SDS011;68056;52.530;5.454;2023-04-03T07:02:46;7.88;;;2.97;;
78732;SDS011;68056;52.530;5.454;2023-04-03T07:05:12;7.28;;;2.45;;
78732;SDS011;68056;52.530;5.454;2023-04-03T07:07:38;5.78;;;2.63;;
78732;SDS011;68056;52.530;5.454;2023-04-03T07:10:05;4.68;;;2.10;;
78732;SDS011;68056;52.530;5.454;2023-04-03T07:12:31;4.53;;;1.70;;
78732;SDS011;68056;52.530;5.454;2023-04-03T07:15:00;4.40;;;1.70;;
78732;SDS011;68056;52.530;5.454;2023-04-03T07:17:31;2.83;;;1.67;;
78732;SDS011;68056;52.530;5.454;2023-04-03T07:20:10;2.75;;;1.45;;
78732;SDS011;68056;52.530;5.454;2023-04-03T07:22:36;3.22;;;1.52;;
78732;SDS011;68056;52.530;5.454;2023-04-03T07:25:02;5.43;;;1.92;;
78732;SDS011;68056;52.530;5.454;2023-04-03T07:27:28;2.53;;;1.10;;
78732;SDS011;68056;52.530;5.454;2023-04-03T07:29:53;2.08;;;1.20;;
78732;SDS011;68056;52.530;5.454;2023-04-03T07:32:21;4.43;;;1.33;;
78732;SDS011;68056;52.530;5.454;2023-04-03T07:34:46;2.40;;;0.93;;
78732;SDS011;68056;52.530;5.454;2023-04-03T07:37:12;3.17;;;1.15;;
78732;SDS011;68056;52.530;5.454;2023-04-03T07:39:37;1.50;;;1.10;;
78732;SDS011;68056;52.530;5.454;2023-04-03T07:42:03;1.70;;;0.65;;
78732;SDS011;68056;52.530;5.454;2023-04-03T07:44:29;1.73;;;0.98;;
78732;SDS011;68056;52.530;5.454;2023-04-03T07:46:55;1.35;;;0.80;;
78732;SDS011;68056;52.530;5.454;2023-04-03T07:49:21;1.10;;;0.80;;
78732;SDS011;68056;52.530;5.454;2023-04-03T07:51:51;2.60;;;0.77;;
78732;SDS011;68056;52.530;5.454;2023-04-03T07:54:18;2.40;;;1.40;;
78732;SDS011;68056;52.530;5.454;2023-04-03T07:56:55;1.75;;;1.00;;
78732;SDS011;68056;52.530;5.454;2023-04-03T07:59:22;1.90;;;0.90;;
78732;SDS011;68056;52.530;5.454;2023-04-03T08:01:47;4.00;;;1.10;;
78732;SDS011;68056;52.530;5.454;2023-04-03T08:04:16;2.10;;;0.88;;
78732;SDS011;68056;52.530;5.454;2023-04-03T08:06:41;2.75;;;0.70;;
78732;SDS011;68056;52.530;5.454;2023-04-03T08:09:07;2.33;;;0.95;;
78732;SDS011;68056;52.530;5.454;2023-04-03T08:11:33;4.28;;;0.93;;
78732;SDS011;68056;52.530;5.454;2023-04-03T08:13:58;1.33;;;0.63;;
78732;SDS011;68056;52.530;5.454;2023-04-03T08:16:27;2.25;;;0.85;;
78732;SDS011;68056;52.530;5.454;2023-04-03T08:18:54;6.03;;;1.40;;
78732;SDS011;68056;52.530;5.454;2023-04-03T08:21:19;5.75;;;1.40;;
78732;SDS011;68056;52.530;5.454;2023-04-03T08:23:47;5.03;;;1.25;;
78732;SDS011;68056;52.530;5.454;2023-04-03T08:26:15;4.13;;;1.05;;
78732;SDS011;68056;52.530;5.454;2023-04-03T08:28:43;2.13;;;0.90;;
78732;SDS011;68056;52.530;5.454;2023-04-03T08:31:10;4.10;;;1.15;;
78732;SDS011;68056;52.530;5.454;2023-04-03T08:33:38;3.47;;;1.17;;
78732;SDS011;68056;52.530;5.454;2023-04-03T08:36:05;3.05;;;2.25;;
78732;SDS011;68056;52.530;5.454;2023-04-03T08:38:32;3.60;;;1.35;;
78732;SDS011;68056;52.530;5.454;2023-04-03T08:49:49;4.75;;;1.63;;
78732;SDS011;68056;52.530;5.454;2023-04-03T08:52:19;4.15;;;1.23;;
78732;SDS011;68056;52.530;5.454;2023-04-03T08:57:20;2.83;;;1.50;;
78732;SDS011;68056;52.530;5.454;2023-04-03T08:59:55;2.72;;;1.25;;
78732;SDS011;68056;52.530;5.454;2023-04-03T09:02:43;2.65;;;1.38;;
78732;SDS011;68056;52.530;5.454;2023-04-03T09:05:13;2.80;;;1.20;;
78732;SDS011;68056;52.530;5.454;2023-04-03T09:10:47;4.03;;;1.20;;
78732;SDS011;68056;52.530;5.454;2023-04-03T09:13:30;3.35;;;1.63;;
78732;SDS011;68056;52.530;5.454;2023-04-03T09:16:04;2.95;;;1.38;;
78732;SDS011;68056;52.530;5.454;2023-04-03T09:18:48;2.47;;;0.80;;
78732;SDS011;68056;52.530;5.454;2023-04-03T09:21:25;2.05;;;0.98;;
78732;SDS011;68056;52.530;5.454;2023-04-03T09:23:57;2.05;;;0.93;;
78732;SDS011;68056;52.530;5.454;2023-04-03T09:26:31;1.60;;;0.75;;
78732;SDS011;68056;52.530;5.454;2023-04-03T09:29:02;2.90;;;1.08;;
78732;SDS011;68056;52.530;5.454;2023-04-03T09:31:36;6.43;;;2.00;;
78732;SDS011;68056;52.530;5.454;2023-04-03T09:34:06;3.47;;;1.15;;
78732;SDS011;68056;52.530;5.454;2023-04-03T09:36:41;3.03;;;1.30;;
78732;SDS011;68056;52.530;5.454;2023-04-03T09:39:10;3.80;;;1.00;;
78732;SDS011;68056;52.530;5.454;2023-04-03T09:41:58;2.00;;;1.02;;
78732;SDS011;68056;52.530;5.454;2023-04-03T09:44:30;2.67;;;0.85;;
78732;SDS011;68056;52.530;5.454;2023-04-03T09:47:17;1.65;;;0.90;;
78732;SDS011;68056;52.530;5.454;2023-04-03T09:49:49;2.35;;;0.80;;
78732;SDS011;68056;52.530;5.454;2023-04-03T09:52:19;2.50;;;0.60;;
78732;SDS011;68056;52.530;5.454;2023-04-03T09:54:47;1.58;;;0.50;;
78732;SDS011;68056;52.530;5.454;2023-04-03T09:57:13;0.75;;;0.40;;
78732;SDS011;68056;52.530;5.454;2023-04-03T09:59:58;2.33;;;0.60;;
78732;SDS011;68056;52.530;5.454;2023-04-03T10:02:30;1.35;;;0.70;;
78732;SDS011;68056;52.530;5.454;2023-04-03T10:04:59;0.60;;;0.30;;
78732;SDS011;68056;52.530;5.454;2023-04-03T10:07:33;1.48;;;0.43;;
78732;SDS011;68056;52.530;5.454;2023-04-03T10:10:14;1.27;;;0.45;;
78732;SDS011;68056;52.530;5.454;2023-04-03T10:12:44;1.10;;;0.47;;
78732;SDS011;68056;52.530;5.454;2023-04-03T10:15:14;0.95;;;0.40;;
78732;SDS011;68056;52.530;5.454;2023-04-03T10:17:51;3.33;;;0.60;;
78732;SDS011;68056;52.530;5.454;2023-04-03T10:20:43;0.22;;;0.20;;
78732;SDS011;68056;52.530;5.454;2023-04-03T10:23:21;1.52;;;0.38;;
78732;SDS011;68056;52.530;5.454;2023-04-03T10:28:42;0.85;;;0.40;;
78732;SDS011;68056;52.530;5.454;2023-04-03T10:31:46;3.20;;;0.63;;
78732;SDS011;68056;52.530;5.454;2023-04-03T10:39:27;0.90;;;0.40;;
78732;SDS011;68056;52.530;5.454;2023-04-03T10:45:19;1.42;;;0.40;;
78732;SDS011;68056;52.530;5.454;2023-04-03T10:55:42;1.27;;;0.45;;
78732;SDS011;68056;52.530;5.454;2023-04-03T10:58:31;2.33;;;0.57;;
78732;SDS011;68056;52.530;5.454;2023-04-03T11:01:01;1.25;;;0.60;;
78732;SDS011;68056;52.530;5.454;2023-04-03T11:03:34;0.82;;;0.52;;
78732;SDS011;68056;52.530;5.454;2023-04-03T11:06:06;0.98;;;0.55;;
78732;SDS011;68056;52.530;5.454;2023-04-03T11:11:17;0.82;;;0.40;;
78732;SDS011;68056;52.530;5.454;2023-04-03T11:14:09;1.15;;;0.32;;
78732;SDS011;68056;52.530;5.454;2023-04-03T11:16:59;1.42;;;0.57;;
78732;SDS011;68056;52.530;5.454;2023-04-03T11:19:57;1.38;;;0.40;;
78732;SDS011;68056;52.530;5.454;2023-04-03T11:22:41;2.50;;;0.75;;
78732;SDS011;68056;52.530;5.454;2023-04-03T11:27:57;0.40;;;0.30;;
78732;SDS011;68056;52.530;5.454;2023-04-03T11:33:00;0.95;;;0.50;;
78732;SDS011;68056;52.530;5.454;2023-04-03T11:35:51;1.83;;;0.52;;
78732;SDS011;68056;52.530;5.454;2023-04-03T11:38:52;0.68;;;0.40;;
78732;SDS011;68056;52.530;5.454;2023-04-03T11:41:16;0.68;;;0.40;;
78732;SDS011;68056;52.530;5.454;2023-04-03T11:43:42;0.93;;;0.43;;
78732;SDS011;68056;52.530;5.454;2023-04-03T11:46:22;1.23;;;0.50;;
78732;SDS011;68056;52.530;5.454;2023-04-03T11:49:19;0.80;;;0.47;;
78732;SDS011;68056;52.530;5.454;2023-04-03T11:52:12;1.05;;;0.40;;
78732;SDS011;68056;52.530;5.454;2023-04-03T12:05:49;1.00;;;0.57;;
78732;SDS011;68056;52.530;5.454;2023-04-03T12:08:21;1.50;;;0.90;;
78732;SDS011;68056;52.530;5.454;2023-04-03T12:16:28;1.65;;;0.60;;
78732;SDS011;68056;52.530;5.454;2023-04-03T12:26:46;1.00;;;0.60;;
78732;SDS011;68056;52.530;5.454;2023-04-03T12:37:21;0.70;;;0.40;;
78732;SDS011;68056;52.530;5.454;2023-04-03T12:43:02;2.10;;;1.00;;
78732;SDS011;68056;52.530;5.454;2023-04-03T12:46:03;2.22;;;0.90;;
78732;SDS011;68056;52.530;5.454;2023-04-03T12:48:56;0.95;;;0.47;;
78732;SDS011;68056;52.530;5.454;2023-04-03T12:51:56;2.30;;;0.77;;
78732;SDS011;68056;52.530;5.454;2023-04-03T12:54:30;0.55;;;0.40;;
78732;SDS011;68056;52.530;5.454;2023-04-03T12:59:37;1.20;;;0.65;;
78732;SDS011;68056;52.530;5.454;2023-04-03T13:02:03;2.05;;;1.00;;
78732;SDS011;68056;52.530;5.454;2023-04-03T13:07:18;1.20;;;0.50;;
78732;SDS011;68056;52.530;5.454;2023-04-03T13:09:47;2.08;;;0.98;;
78732;SDS011;68056;52.530;5.454;2023-04-03T13:12:20;1.90;;;1.35;;
78732;SDS011;68056;52.530;5.454;2023-04-03T13:14:54;2.03;;;0.70;;
78732;SDS011;68056;52.530;5.454;2023-04-03T13:17:23;2.35;;;0.70;;
78732;SDS011;68056;52.530;5.454;2023-04-03T13:19:53;2.00;;;0.93;;
78732;SDS011;68056;52.530;5.454;2023-04-03T13:22:36;3.63;;;0.98;;
78732;SDS011;68056;52.530;5.454;2023-04-03T13:25:09;1.88;;;0.77;;
78732;SDS011;68056;52.530;5.454;2023-04-03T13:27:38;2.25;;;0.75;;
78732;SDS011;68056;52.530;5.454;2023-04-03T13:30:17;2.35;;;0.88;;
78732;SDS011;68056;52.530;5.454;2023-04-03T13:32:55;1.88;;;0.70;;
78732;SDS011;68056;52.530;5.454;2023-04-03T13:35:44;1.52;;;0.60;;
78732;SDS011;68056;52.530;5.454;2023-04-03T13:40:52;0.85;;;0.50;;
78732;SDS011;68056;52.530;5.454;2023-04-03T13:43:21;2.13;;;0.65;;
78732;SDS011;68056;52.530;5.454;2023-04-03T13:45:57;1.73;;;0.75;;
78732;SDS011;68056;52.530;5.454;2023-04-03T13:48:25;1.40;;;0.70;;
78732;SDS011;68056;52.530;5.454;2023-04-03T13:53:25;1.55;;;0.70;;
78732;SDS011;68056;52.530;5.454;2023-04-03T13:55:54;0.98;;;0.68;;
78732;SDS011;68056;52.530;5.454;2023-04-03T13:58:34;2.55;;;0.57;;
78732;SDS011;68056;52.530;5.454;2023-04-03T14:03:45;1.58;;;0.60;;
78732;SDS011;68056;52.530;5.454;2023-04-03T14:06:15;1.70;;;0.60;;
78732;SDS011;68056;52.530;5.454;2023-04-03T14:08:41;1.60;;;0.88;;
78732;SDS011;68056;52.530;5.454;2023-04-03T14:11:30;1.35;;;0.63;;
78732;SDS011;68056;52.530;5.454;2023-04-03T14:13:56;1.55;;;0.57;;
78732;SDS011;68056;52.530;5.454;2023-04-03T14:16:26;1.20;;;0.60;;
78732;SDS011;68056;52.530;5.454;2023-04-03T14:18:55;0.90;;;0.60;;
78732;SDS011;68056;52.530;5.454;2023-04-03T14:21:21;2.05;;;0.52;;
78732;SDS011;68056;52.530;5.454;2023-04-03T14:23:47;1.05;;;0.50;;
78732;SDS011;68056;52.530;5.454;2023-04-03T14:26:22;1.83;;;0.70;;
78732;SDS011;68056;52.530;5.454;2023-04-03T14:28:50;1.67;;;0.70;;
78732;SDS011;68056;52.530;5.454;2023-04-03T14:31:18;2.47;;;0.77;;
78732;SDS011;68056;52.530;5.454;2023-04-03T14:33:45;0.70;;;0.47;;
78732;SDS011;68056;52.530;5.454;2023-04-03T14:38:45;2.05;;;0.93;;
78732;SDS011;68056;52.530;5.454;2023-04-03T14:41:15;1.08;;;0.82;;
78732;SDS011;68056;52.530;5.454;2023-04-03T14:43:44;2.50;;;0.60;;
78732;SDS011;68056;52.530;5.454;2023-04-03T14:46:14;1.77;;;0.70;;
78732;SDS011;68056;52.530;5.454;2023-04-03T14:48:42;0.80;;;0.50;;
78732;SDS011;68056;52.530;5.454;2023-04-03T14:51:12;2.22;;;0.52;;
78732;SDS011;68056;52.530;5.454;2023-04-03T14:53:40;1.55;;;0.80;;
78732;SDS011;68056;52.530;5.454;2023-04-03T14:56:14;1.77;;;0.68;;
78732;SDS011;68056;52.530;5.454;2023-04-03T14:58:47;1.33;;;0.70;;
78732;SDS011;68056;52.530;5.454;2023-04-03T15:01:15;2.05;;;0.80;;
78732;SDS011;68056;52.530;5.454;2023-04-03T15:03:42;2.08;;;0.73;;
78732;SDS011;68056;52.530;5.454;2023-04-03T15:06:14;2.67;;;0.90;;
78732;SDS011;68056;52.530;5.454;2023-04-03T15:08:45;2.15;;;0.70;;
78732;SDS011;68056;52.530;5.454;2023-04-03T15:11:12;2.55;;;1.15;;
78732;SDS011;68056;52.530;5.454;2023-04-03T15:13:38;1.58;;;0.80;;
78732;SDS011;68056;52.530;5.454;2023-04-03T15:16:05;1.60;;;0.60;;
78732;SDS011;68056;52.530;5.454;2023-04-03T15:18:37;0.85;;;0.60;;
78732;SDS011;68056;52.530;5.454;2023-04-03T15:21:04;3.15;;;0.80;;
78732;SDS011;68056;52.530;5.454;2023-04-03T15:23:30;1.50;;;0.80;;
78732;SDS011;68056;52.530;5.454;2023-04-03T15:25:55;4.50;;;0.90;;
78732;SDS011;68056;52.530;5.454;2023-04-03T15:28:23;2.38;;;0.90;;
78732;SDS011;68056;52.530;5.454;2023-04-03T15:31:02;1.73;;;0.60;;
78732;SDS011;68056;52.530;5.454;2023-04-03T15:33:29;1.65;;;0.70;;
78732;SDS011;68056;52.530;5.454;2023-04-03T15:35:55;2.90;;;1.00;;
78732;SDS011;68056;52.530;5.454;2023-04-03T15:38:23;2.08;;;0.75;;
78732;SDS011;68056;52.530;5.454;2023-04-03T15:40:49;1.05;;;0.60;;
78732;SDS011;68056;52.530;5.454;2023-04-03T15:43:15;1.90;;;0.80;;
78732;SDS011;68056;52.530;5.454;2023-04-03T15:45:41;0.95;;;0.50;;
78732;SDS011;68056;52.530;5.454;2023-04-03T15:48:07;1.42;;;0.70;;
78732;SDS011;68056;52.530;5.454;2023-04-03T15:50:34;1.08;;;0.60;;
78732;SDS011;68056;52.530;5.454;2023-04-03T15:53:00;1.33;;;0.70;;
78732;SDS011;68056;52.530;5.454;2023-04-03T15:55:30;2.20;;;0.75;;
78732;SDS011;68056;52.530;5.454;2023-04-03T15:57:58;1.33;;;0.90;;
78732;SDS011;68056;52.530;5.454;2023-04-03T16:00:24;1.15;;;0.80;;
78732;SDS011;68056;52.530;5.454;2023-04-03T16:02:52;1.80;;;0.98;;
78732;SDS011;68056;52.530;5.454;2023-04-03T16:05:21;1.33;;;0.73;;
78732;SDS011;68056;52.530;5.454;2023-04-03T16:07:47;1.88;;;0.90;;
78732;SDS011;68056;52.530;5.454;2023-04-03T16:10:13;1.63;;;0.65;;
78732;SDS011;68056;52.530;5.454;2023-04-03T16:12:39;1.70;;;0.82;;
78732;SDS011;68056;52.530;5.454;2023-04-03T16:15:05;1.42;;;0.60;;
78732;SDS011;68056;52.530;5.454;2023-04-03T16:17:32;1.73;;;0.63;;
78732;SDS011;68056;52.530;5.454;2023-04-03T16:19:59;2.67;;;0.75;;
78732;SDS011;68056;52.530;5.454;2023-04-03T16:22:25;1.25;;;0.75;;
78732;SDS011;68056;52.530;5.454;2023-04-03T16:27:18;1.50;;;0.90;;
78732;SDS011;68056;52.530;5.454;2023-04-03T16:29:44;1.73;;;0.88;;
78732;SDS011;68056;52.530;5.454;2023-04-03T16:32:10;1.50;;;0.85;;
78732;SDS011;68056;52.530;5.454;2023-04-03T16:34:37;1.15;;;0.90;;
78732;SDS011;68056;52.530;5.454;2023-04-03T16:37:02;1.52;;;0.70;;
78732;SDS011;68056;52.530;5.454;2023-04-03T16:39:33;2.67;;;1.00;;
78732;SDS011;68056;52.530;5.454;2023-04-03T16:41:59;2.05;;;1.10;;
78732;SDS011;68056;52.530;5.454;2023-04-03T16:44:25;0.60;;;0.50;;
78732;SDS011;68056;52.530;5.454;2023-04-03T16:46:51;2.72;;;1.05;;